Time;durP1;ratioP1;P1;durP2;ratioP2;P2;SDS_P1;SDS_P2;PMS_P1;PMS_P2;Temp;Humidity;BMP_temperature;BMP_pressure;BME280_temperature;BME280_humidity;BME280_pressure;Samples;Min_cycle;Max_cycle;Signal;HPM_P1;HPM_P2
2023/12/04 07:54:12;;;;;;;24.00;13.10;;;;;;;-0.46;86.80;101198.15;107665;1256;74054;-67
2023/12/04 07:57:07;;;;;;;24.20;14.40;;;;;;;-0.50;85.57;101200.63;107625;1261;72704;-66
2023/12/04 07:59:34;;;;;;;24.10;14.20;;;;;;;-0.50;85.42;101196.47;107590;1256;61596;-67
2023/12/04 08:02:02;;;;;;;24.20;15.00;;;;;;;-0.46;85.28;101199.52;107743;1254;60331;-66
2023/12/04 08:04:31;;;;;;;22.50;13.50;;;;;;;-0.39;85.21;101201.63;107642;1255;72440;-67
2023/12/04 08:06:59;;;;;;;19.90;12.10;;;;;;;-0.33;85.01;101205.13;107993;1260;73023;-66
2023/12/04 08:09:26;;;;;;;22.60;12.30;;;;;;;-0.26;84.97;101204.98;107596;1261;71440;-66
2023/12/04 08:11:54;;;;;;;23.40;13.30;;;;;;;-0.18;84.56;101209.81;107765;1256;60278;-66
2023/12/04 08:14:24;;;;;;;22.00;12.60;;;;;;;-0.15;84.27;101213.95;107846;1256;60203;-66
2023/12/04 08:16:52;;;;;;;22.80;13.60;;;;;;;-0.12;83.96;101213.84;107630;1256;72974;-65
2023/12/04 08:19:19;;;;;;;20.90;12.30;;;;;;;-0.09;83.93;101212.77;107777;1254;71613;-66
2023/12/04 08:21:47;;;;;;;19.80;12.30;;;;;;;-0.04;83.26;101214.70;107845;1257;72767;-66
2023/12/04 08:24:18;;;;;;;20.60;11.80;;;;;;;-0.03;83.03;101218.15;107816;1257;60319;-66
2023/12/04 08:26:46;;;;;;;20.20;11.90;;;;;;;0.02;83.12;101218.90;107843;1254;60446;-65
2023/12/04 08:29:13;;;;;;;20.10;11.70;;;;;;;0.07;82.94;101219.56;107837;1254;72577;-66
2023/12/04 08:31:44;;;;;;;19.10;11.70;;;;;;;0.13;82.72;101219.76;107738;1256;71458;-66
2023/12/04 08:34:11;;;;;;;21.70;12.90;;;;;;;0.17;82.69;101215.77;107657;1257;70614;-67
2023/12/04 08:36:39;;;;;;;22.10;12.20;;;;;;;0.23;82.69;101216.69;107680;1257;60360;-66
2023/12/04 08:39:13;;;;;;;20.20;12.00;;;;;;;0.30;82.42;101211.92;107826;1254;60293;-66
2023/12/04 08:41:41;;;;;;;18.90;12.20;;;;;;;0.31;81.77;101208.23;107838;1254;73238;-66
2023/12/04 08:44:21;;;;;;;19.70;12.00;;;;;;;0.35;81.49;101212.91;107854;1254;72575;-67
2023/12/04 08:46:48;;;;;;;23.10;13.80;;;;;;;0.35;81.05;101212.18;107743;1260;71039;-67
2023/12/04 08:49:16;;;;;;;22.10;13.50;;;;;;;0.40;81.25;101210.77;107554;1256;60320;-67
2023/12/04 08:51:44;;;;;;;21.20;12.80;;;;;;;0.48;81.10;101208.66;107574;1256;60438;-66
2023/12/04 08:54:11;;;;;;;18.30;11.80;;;;;;;0.56;81.08;101205.28;107596;1256;72521;-66
2023/12/04 08:56:42;;;;;;;22.30;13.20;;;;;;;0.63;80.91;101209.17;107590;1256;71644;-67
2023/12/04 08:59:10;;;;;;;26.20;14.30;;;;;;;0.61;79.77;101210.23;107512;1258;72434;-66
2023/12/04 09:01:39;;;;;;;21.80;12.40;;;;;;;0.60;80.04;101201.77;107569;1259;60919;-67
2023/12/04 09:04:08;;;;;;;21.50;12.80;;;;;;;0.61;79.57;101199.92;107671;1254;60345;-67
2023/12/04 09:06:36;;;;;;;21.70;13.00;;;;;;;0.60;79.34;101200.20;108237;1256;72615;-67
2023/12/04 09:09:07;;;;;;;20.30;12.40;;;;;;;0.60;79.49;101200.55;107623;1256;72487;-68
2023/12/04 09:11:42;;;;;;;20.40;12.40;;;;;;;0.63;79.46;101203.09;107547;1256;72840;-67
2023/12/04 09:14:10;;;;;;;22.70;12.90;;;;;;;0.68;79.61;101201.73;107584;1259;60365;-67
2023/12/04 09:16:38;;;;;;;21.10;12.70;;;;;;;0.71;79.47;101199.67;107678;1256;60048;-66
2023/12/04 09:19:05;;;;;;;21.90;12.80;;;;;;;0.69;79.06;101197.10;107615;1256;72660;-67
2023/12/04 09:21:33;;;;;;;23.60;14.10;;;;;;;0.68;78.69;101195.14;107473;1254;73140;-67
2023/12/04 09:24:01;;;;;;;24.10;14.30;;;;;;;0.70;79.15;101203.31;107775;1258;72751;-68
2023/12/04 09:26:29;;;;;;;22.30;14.00;;;;;;;0.70;78.90;101204.69;108107;1258;60326;-67
2023/12/04 09:28:58;;;;;;;25.40;14.30;;;;;;;0.74;78.77;101204.16;107596;1256;60283;-67
2023/12/04 09:31:26;;;;;;;24.40;14.70;;;;;;;0.77;79.03;101203.95;107564;1256;74300;-67
2023/12/04 09:33:54;;;;;;;24.50;14.10;;;;;;;0.80;79.02;101198.14;107542;1256;72786;-68
2023/12/04 09:36:21;;;;;;;25.60;15.20;;;;;;;0.84;78.85;101197.31;107586;1254;75274;-67
2023/12/04 09:38:49;;;;;;;26.70;15.50;;;;;;;0.87;78.81;101203.96;107765;1256;60406;-66
2023/12/04 09:41:17;;;;;;;26.30;16.10;;;;;;;0.88;78.52;101205.62;107612;1255;60800;-68
2023/12/04 09:43:44;;;;;;;24.60;14.40;;;;;;;0.84;78.12;101208.16;107534;1256;74679;-68
2023/12/04 09:46:12;;;;;;;24.90;15.70;;;;;;;0.82;77.85;101204.06;107723;1254;72079;-67
2023/12/04 09:48:41;;;;;;;25.80;15.40;;;;;;;0.81;77.81;101207.20;107620;1256;71197;-67
2023/12/04 09:51:09;;;;;;;27.20;15.80;;;;;;;0.78;77.74;101200.12;107630;1256;60135;-68
2023/12/04 09:53:37;;;;;;;25.80;15.50;;;;;;;0.77;77.43;101196.55;107614;1256;60448;-67
2023/12/04 09:56:06;;;;;;;25.90;15.80;;;;;;;0.76;77.23;101196.86;107599;1256;72684;-67
2023/12/04 09:58:34;;;;;;;24.60;14.70;;;;;;;0.74;76.69;101195.73;107596;1256;72895;-67
2023/12/04 10:01:03;;;;;;;26.50;15.30;;;;;;;0.74;76.81;101197.14;107847;1254;71669;-67
2023/12/04 10:03:33;;;;;;;23.70;13.80;;;;;;;0.76;76.94;101198.27;107714;1257;59644;-68
2023/12/04 10:06:01;;;;;;;22.90;15.20;;;;;;;0.78;77.00;101202.98;107544;1256;60740;-68
2023/12/04 10:08:29;;;;;;;23.80;15.00;;;;;;;0.76;76.74;101198.07;107765;1256;72742;-67
2023/12/04 10:10:58;;;;;;;24.10;14.30;;;;;;;0.75;75.72;101189.73;107542;1256;71699;-67
2023/12/04 10:13:27;;;;;;;22.50;13.10;;;;;;;0.73;74.89;101192.80;107759;1260;74471;-67
2023/12/04 10:16:34;;;;;;;21.10;12.50;;;;;;;0.69;74.06;101200.58;107553;1256;63064;-67
2023/12/04 10:19:30;;;;;;;15.90;9.60;;;;;;;0.66;73.07;101195.71;107593;1256;60307;-67
2023/12/04 10:22:02;;;;;;;12.80;8.30;;;;;;;0.61;71.96;101197.89;107622;1256;73225;-67
2023/12/04 10:24:35;;;;;;;15.40;8.70;;;;;;;0.57;71.10;101199.66;107726;1256;74288;-67
2023/12/04 10:27:05;;;;;;;13.20;7.80;;;;;;;0.57;70.69;101194.83;107708;1256;74045;-67
2023/12/04 10:29:48;;;;;;;11.50;7.10;;;;;;;0.59;69.76;101202.64;107812;1255;60365;-67
2023/12/04 10:32:21;;;;;;;10.30;6.40;;;;;;;0.59;67.97;101196.89;107702;1256;62182;-66
2023/12/04 10:34:49;;;;;;;7.90;5.10;;;;;;;0.57;66.66;101194.23;107637;1256;73928;-67
2023/12/04 10:37:19;;;;;;;8.60;5.10;;;;;;;0.55;65.70;101194.15;107706;1256;72226;-67
2023/12/04 10:39:51;;;;;;;8.50;5.30;;;;;;;0.53;64.80;101200.21;107645;1257;73087;-66
2023/12/04 10:42:26;;;;;;;10.50;6.50;;;;;;;0.53;64.21;101198.96;107581;1256;61411;-68
2023/12/04 10:44:57;;;;;;;10.10;6.40;;;;;;;0.56;63.81;101201.76;107575;1254;60312;-68
2023/12/04 10:47:26;;;;;;;10.10;5.80;;;;;;;0.60;63.27;101204.30;107719;1259;72826;-69
2023/12/04 10:49:54;;;;;;;11.00;6.00;;;;;;;0.63;62.88;101210.52;107683;1256;71588;-67
2023/12/04 10:52:23;;;;;;;9.80;5.80;;;;;;;0.64;62.36;101206.23;107718;1262;72518;-68
2023/12/04 10:54:50;;;;;;;8.20;5.10;;;;;;;0.63;61.96;101203.89;107721;1257;60449;-67
2023/12/04 10:57:38;;;;;;;8.20;4.70;;;;;;;0.65;61.68;101203.34;107703;1256;60413;-68
2023/12/04 11:00:08;;;;;;;7.70;5.00;;;;;;;0.69;61.11;101196.09;107648;1256;72646;-68
2023/12/04 11:02:36;;;;;;;9.40;5.60;;;;;;;0.75;60.91;101198.45;107720;1256;73208;-69
2023/12/04 11:05:13;;;;;;;9.10;5.20;;;;;;;0.80;60.81;101196.91;107739;1261;72571;-67
2023/12/04 11:07:52;;;;;;;10.60;5.70;;;;;;;0.84;60.83;101199.28;107651;1259;60353;-67
2023/12/04 11:10:59;;;;;;;7.90;5.00;;;;;;;0.83;60.26;101204.02;107630;1256;60853;-67
2023/12/04 11:13:31;;;;;;;8.00;4.80;;;;;;;0.79;59.98;101203.30;107666;1256;73809;-68
2023/12/04 11:16:01;;;;;;;9.00;5.00;;;;;;;0.78;60.12;101206.80;107763;1256;72954;-68
2023/12/04 11:18:31;;;;;;;7.90;4.90;;;;;;;0.78;60.27;101208.88;107705;1258;72886;-68
2023/12/04 11:21:06;;;;;;;9.30;5.10;;;;;;;0.81;60.36;101206.15;107745;1256;61477;-68
2023/12/04 11:23:34;;;;;;;10.00;5.10;;;;;;;0.78;60.22;101210.45;107676;1256;60319;-68
2023/12/04 11:26:03;;;;;;;8.70;5.50;;;;;;;0.77;60.26;101211.48;107757;1256;72594;-68
2023/12/04 11:28:36;;;;;;;9.40;5.50;;;;;;;0.79;60.46;101212.08;107749;1256;71256;-70
2023/12/04 11:31:05;;;;;;;9.50;5.70;;;;;;;0.82;60.26;101209.31;107657;1256;71407;-68
2023/12/04 11:33:38;;;;;;;8.90;5.60;;;;;;;0.83;59.60;101200.58;107700;1256;60340;-68
2023/12/04 11:36:11;;;;;;;8.90;5.70;;;;;;;0.87;59.64;101202.22;107712;1256;60287;-69
2023/12/04 11:38:48;;;;;;;8.80;5.40;;;;;;;0.89;59.57;101203.46;107738;1261;76172;-68
2023/12/04 11:41:21;;;;;;;7.70;5.40;;;;;;;0.89;59.38;101213.46;107931;1256;72378;-68
2023/12/04 11:43:56;;;;;;;8.30;5.10;;;;;;;0.88;59.50;101214.54;107889;1256;75429;-69
2023/12/04 11:46:26;;;;;;;8.70;5.70;;;;;;;0.92;59.61;101211.61;107959;1256;61436;-67
2023/12/04 11:48:54;;;;;;;9.50;5.70;;;;;;;0.95;59.22;101208.48;107661;1256;61031;-68
2023/12/04 11:51:43;;;;;;;9.70;6.30;;;;;;;0.97;59.10;101210.95;107746;1255;73246;-69
2023/12/04 11:54:12;;;;;;;8.60;5.40;;;;;;;0.94;59.08;101207.47;107750;1256;72893;-68
2023/12/04 11:56:40;;;;;;;9.00;5.20;;;;;;;0.93;58.65;101202.95;107676;1256;74875;-69
2023/12/04 11:59:08;;;;;;;8.50;5.30;;;;;;;0.87;58.49;101200.71;107722;1256;60285;-68
2023/12/04 12:01:36;;;;;;;9.70;6.10;;;;;;;0.82;58.48;101198.21;107710;1257;59994;-68
2023/12/04 12:04:05;;;;;;;8.20;5.30;;;;;;;0.82;58.59;101200.91;107759;1256;74716;-68
2023/12/04 12:06:35;;;;;;;8.90;5.50;;;;;;;0.82;58.42;101200.15;107722;1256;74082;-69
2023/12/04 12:09:03;;;;;;;10.00;5.80;;;;;;;0.86;58.44;101199.92;107901;1256;72760;-70
2023/12/04 12:11:31;;;;;;;8.50;5.10;;;;;;;0.89;58.38;101198.85;107748;1257;60333;-68
2023/12/04 12:13:59;;;;;;;9.30;6.30;;;;;;;0.92;58.30;101197.84;107978;1256;60315;-68
2023/12/04 12:16:27;;;;;;;10.00;6.10;;;;;;;0.92;58.18;101195.66;108017;1256;72556;-70
2023/12/04 12:19:02;;;;;;;9.60;5.80;;;;;;;0.89;58.13;101199.02;108031;1256;75159;-69
2023/12/04 12:21:34;;;;;;;9.30;5.80;;;;;;;0.81;57.68;101193.06;108021;1256;72482;-68
2023/12/04 12:24:04;;;;;;;8.70;5.60;;;;;;;0.78;57.98;101190.20;107975;1256;61428;-67
2023/12/04 12:26:33;;;;;;;8.90;5.50;;;;;;;0.75;57.78;101197.88;107911;1256;62610;-67
2023/12/04 12:29:01;;;;;;;9.80;5.90;;;;;;;0.68;57.69;101195.95;107938;1256;74562;-67
2023/12/04 12:31:35;;;;;;;9.20;5.90;;;;;;;0.65;57.83;101189.02;108046;1256;75001;-67
2023/12/04 12:34:13;;;;;;;9.50;5.60;;;;;;;0.63;57.75;101198.33;107937;1256;72739;-67
2023/12/04 12:36:50;;;;;;;9.00;5.90;;;;;;;0.63;58.08;101196.36;107956;1256;60438;-68
2023/12/04 12:39:39;;;;;;;6.80;3.60;;;;;;;0.64;58.02;101196.98;107977;1257;61359;-67
2023/12/04 12:42:29;;;;;;;9.30;5.70;;;;;;;0.63;58.13;101199.39;107766;1256;76067;-66
2023/12/04 12:45:03;;;;;;;8.90;5.30;;;;;;;0.60;57.61;101200.82;107699;1256;71490;-66
2023/12/04 12:47:35;;;;;;;8.40;5.00;;;;;;;0.51;57.34;101200.36;107651;1256;71675;-66
2023/12/04 12:50:13;;;;;;;8.00;5.20;;;;;;;0.41;57.52;101195.16;107652;1256;60225;-66
2023/12/04 12:53:05;;;;;;;8.70;5.30;;;;;;;0.35;57.59;101192.61;107629;1261;61285;-66
2023/12/04 12:55:42;;;;;;;7.80;5.00;;;;;;;0.27;57.32;101191.77;107714;1259;75869;-65
2023/12/04 12:58:10;;;;;;;8.60;5.10;;;;;;;0.19;57.17;101189.58;107769;1256;73198;-66
2023/12/04 13:00:40;;;;;;;8.60;5.00;;;;;;;0.15;57.56;101190.50;107711;1256;72982;-66
2023/12/04 13:03:17;;;;;;;8.30;4.80;;;;;;;0.09;57.39;101194.30;107870;1258;60339;-66
2023/12/04 13:05:46;;;;;;;8.40;5.20;;;;;;;0.05;57.53;101198.13;107879;1259;60275;-66
2023/12/04 13:08:17;;;;;;;7.90;4.60;;;;;;;-0.00;57.72;101196.05;107940;1256;72552;-66
2023/12/04 13:10:44;;;;;;;10.20;4.90;;;;;;;-0.03;58.10;101200.05;107678;1256;75057;-65
2023/12/04 13:13:13;;;;;;;8.50;5.30;;;;;;;-0.06;58.27;101197.85;107885;1260;72730;-65
2023/12/04 13:15:41;;;;;;;7.70;5.00;;;;;;;-0.10;58.44;101195.52;107753;1259;60500;-65
2023/12/04 13:18:09;;;;;;;8.60;5.00;;;;;;;-0.14;58.46;101202.48;107775;1259;62682;-66
2023/12/04 13:20:37;;;;;;;9.40;5.20;;;;;;;-0.19;58.45;101205.30;107727;1258;73994;-66
2023/12/04 13:23:05;;;;;;;7.30;4.90;;;;;;;-0.21;58.67;101206.14;107649;1259;74846;-66
2023/12/04 13:25:33;;;;;;;8.40;5.40;;;;;;;-0.26;58.79;101209.33;107777;1257;74818;-66
2023/12/04 13:28:01;;;;;;;9.00;5.70;;;;;;;-0.26;58.95;101214.12;107730;1258;60301;-67
2023/12/04 13:30:29;;;;;;;8.90;5.10;;;;;;;-0.28;58.89;101217.23;107741;1261;62203;-67
2023/12/04 13:32:57;;;;;;;8.20;5.60;;;;;;;-0.27;59.07;101218.90;107725;1258;76042;-66
2023/12/04 13:35:25;;;;;;;10.10;6.30;;;;;;;-0.27;59.21;101219.80;107774;1259;72475;-67
2023/12/04 13:37:56;;;;;;;10.80;6.60;;;;;;;-0.27;59.35;101219.13;107828;1256;71741;-66
2023/12/04 13:40:28;;;;;;;11.70;6.90;;;;;;;-0.26;59.53;101223.92;107863;1254;60565;-67
2023/12/04 13:45:42;;;;;;;9.70;5.90;;;;;;;-0.25;59.73;101227.11;107697;1256;76060;-67
2023/12/04 13:48:10;;;;;;;13.00;7.20;;;;;;;-0.23;59.47;101221.67;107701;1261;72955;-67
2023/12/04 13:50:40;;;;;;;11.50;6.70;;;;;;;-0.22;59.70;101225.80;107761;1255;75092;-67
2023/12/04 13:53:08;;;;;;;9.70;6.10;;;;;;;-0.24;59.57;101219.81;107683;1261;61888;-67
2023/12/04 14:00:32;;;;;;;12.00;7.10;;;;;;;-0.21;59.72;101225.83;107709;1256;71730;-67
2023/12/04 14:03:04;;;;;;;10.50;7.20;;;;;;;-0.21;59.90;101220.48;107722;1261;73212;-66
2023/12/04 14:05:33;;;;;;;12.60;7.30;;;;;;;-0.22;60.20;101219.30;107711;1260;62041;-67
2023/12/04 14:08:04;;;;;;;11.40;7.10;;;;;;;-0.24;60.27;101220.35;107915;1260;60257;-67
2023/12/04 14:10:33;;;;;;;10.10;6.60;;;;;;;-0.27;60.28;101219.14;107932;1260;76078;-68
2023/12/04 14:13:01;;;;;;;11.50;7.00;;;;;;;-0.32;60.49;101216.50;107895;1256;73086;-66
2023/12/04 14:15:29;;;;;;;11.50;7.30;;;;;;;-0.38;60.57;101213.70;107643;1261;74892;-66
2023/12/04 14:17:57;;;;;;;11.80;6.90;;;;;;;-0.42;61.03;101213.14;107663;1256;61675;-65
2023/12/04 14:20:26;;;;;;;12.40;7.90;;;;;;;-0.48;61.08;101208.14;107780;1256;60303;-68
2023/12/04 14:22:53;;;;;;;14.00;8.00;;;;;;;-0.52;61.26;101212.46;107760;1258;73225;-68
2023/12/04 14:25:21;;;;;;;11.50;7.70;;;;;;;-0.57;61.56;101214.43;107911;1260;75077;-68
2023/12/04 14:27:49;;;;;;;13.50;8.20;;;;;;;-0.64;61.55;101218.11;107757;1256;74860;-67
2023/12/04 14:30:16;;;;;;;12.00;7.70;;;;;;;-0.71;61.83;101218.89;107769;1256;62711;-68
2023/12/04 14:32:44;;;;;;;12.50;8.00;;;;;;;-0.78;62.05;101216.83;107666;1257;60425;-67
2023/12/04 14:35:14;;;;;;;15.10;8.70;;;;;;;-0.82;62.21;101220.98;107722;1256;73601;-68
2023/12/04 14:37:43;;;;;;;16.70;9.30;;;;;;;-0.83;62.55;101221.36;107767;1261;72877;-67
2023/12/04 14:40:17;;;;;;;15.50;9.10;;;;;;;-0.81;62.75;101223.27;107733;1260;73982;-68
2023/12/04 14:42:45;;;;;;;15.10;9.60;;;;;;;-0.78;62.91;101224.21;107744;1261;60297;-67
2023/12/04 14:45:13;;;;;;;15.20;9.50;;;;;;;-0.77;62.89;101226.21;107971;1256;62237;-68
2023/12/04 14:47:41;;;;;;;16.50;9.70;;;;;;;-0.78;63.11;101225.91;107747;1261;76117;-68
2023/12/04 14:50:12;;;;;;;14.70;9.50;;;;;;;-0.78;63.19;101228.14;107783;1256;73952;-68
2023/12/04 14:52:50;;;;;;;12.90;8.50;;;;;;;-0.76;63.30;101227.66;107700;1261;71529;-69
2023/12/04 15:17:00;;;;;;;13.60;8.40;;;;;;;-0.79;64.12;101231.48;107349;1267;71665;-68
2023/12/04 15:19:35;;;;;;;13.80;9.50;;;;;;;-0.82;64.00;101233.34;107588;1257;74851;-67
2023/12/04 15:22:05;;;;;;;14.40;9.10;;;;;;;-0.85;64.19;101233.50;107937;1257;62607;-68
2023/12/04 15:24:33;;;;;;;14.30;8.90;;;;;;;-0.87;64.16;101236.39;107689;1257;60404;-69
2023/12/04 15:27:03;;;;;;;15.30;9.60;;;;;;;-0.92;64.25;101236.77;107747;1261;76120;-68
2023/12/04 15:29:31;;;;;;;13.80;9.80;;;;;;;-0.95;64.15;101241.08;107784;1257;75047;-68
2023/12/04 15:31:58;;;;;;;14.30;9.60;;;;;;;-0.96;64.36;101237.49;107774;1257;72441;-68
2023/12/04 15:34:27;;;;;;;14.80;9.30;;;;;;;-0.95;64.33;101240.88;107756;1256;61300;-67
2023/12/04 15:36:55;;;;;;;13.80;8.90;;;;;;;-0.96;64.35;101239.04;107761;1256;60426;-67
2023/12/04 15:39:23;;;;;;;13.70;9.00;;;;;;;-0.98;64.38;101240.32;107764;1260;75881;-67
2023/12/04 15:41:52;;;;;;;13.90;9.00;;;;;;;-1.01;64.32;101246.06;107738;1257;73814;-68
2023/12/04 15:44:21;;;;;;;14.60;9.40;;;;;;;-1.05;64.40;101248.91;107843;1257;71455;-68
2023/12/04 15:46:48;;;;;;;15.60;10.10;;;;;;;-1.07;64.54;101248.20;107695;1263;61260;-68
2023/12/04 15:49:16;;;;;;;15.70;9.50;;;;;;;-1.07;64.59;101249.54;107719;1256;60979;-68
2023/12/04 15:51:44;;;;;;;16.60;10.80;;;;;;;-1.08;64.45;101256.32;107745;1257;74315;-68
2023/12/04 15:54:12;;;;;;;16.70;10.50;;;;;;;-1.10;64.46;101253.17;107679;1257;71867;-68
2023/12/04 15:56:40;;;;;;;17.50;10.80;;;;;;;-1.10;64.23;101257.89;107786;1262;72896;-67
2023/12/04 15:59:07;;;;;;;14.60;9.60;;;;;;;-1.12;64.44;101256.86;107740;1255;61510;-67
2023/12/04 16:01:35;;;;;;;15.80;10.50;;;;;;;-1.16;64.44;101254.80;107724;1255;60520;-68
2023/12/04 16:04:03;;;;;;;17.60;10.30;;;;;;;-1.20;64.25;101256.23;107748;1256;74267;-67
2023/12/04 16:06:31;;;;;;;16.40;10.10;;;;;;;-1.21;64.59;101259.00;107742;1263;75059;-66
2023/12/04 16:08:59;;;;;;;18.00;10.00;;;;;;;-1.22;64.61;101261.20;107753;1257;74901;-69
2023/12/04 16:11:27;;;;;;;16.50;10.70;;;;;;;-1.24;64.65;101261.58;107740;1257;60287;-67
2023/12/04 16:13:55;;;;;;;16.50;10.40;;;;;;;-1.26;64.78;101265.46;107774;1258;61003;-68
2023/12/04 16:16:23;;;;;;;17.90;10.60;;;;;;;-1.26;64.56;101263.70;107713;1255;72554;-66
2023/12/04 16:18:51;;;;;;;19.50;11.50;;;;;;;-1.23;64.61;101262.43;107787;1257;72605;-68
2023/12/04 16:21:20;;;;;;;16.50;10.50;;;;;;;-1.22;64.57;101263.52;107855;1257;74994;-68
2023/12/04 16:23:48;;;;;;;17.10;10.40;;;;;;;-1.21;64.71;101265.72;107738;1263;61450;-67
2023/12/04 16:26:15;;;;;;;17.00;10.60;;;;;;;-1.23;64.52;101262.52;107817;1257;60991;-67
2023/12/04 16:28:43;;;;;;;17.20;10.80;;;;;;;-1.24;64.63;101261.98;107740;1260;74302;-67
2023/12/04 16:31:12;;;;;;;17.40;11.10;;;;;;;-1.25;64.65;101261.87;107933;1257;75118;-68
2023/12/04 16:33:40;;;;;;;19.10;11.40;;;;;;;-1.27;64.65;101262.81;107745;1257;74998;-67
2023/12/04 16:36:10;;;;;;;16.80;11.10;;;;;;;-1.29;64.70;101265.66;107782;1257;60288;-67
2023/12/04 16:38:38;;;;;;;20.40;11.60;;;;;;;-1.31;64.83;101266.68;107782;1256;58992;-66
2023/12/04 16:41:08;;;;;;;19.70;11.70;;;;;;;-1.31;65.06;101269.36;107890;1257;76095;-67
2023/12/04 16:43:36;;;;;;;19.80;12.30;;;;;;;-1.30;65.13;101270.77;107880;1257;72061;-67
2023/12/04 16:46:04;;;;;;;18.80;12.00;;;;;;;-1.32;65.28;101270.45;107758;1257;70928;-68
2023/12/04 16:48:32;;;;;;;22.80;13.10;;;;;;;-1.33;65.34;101273.94;107712;1258;60292;-67
2023/12/04 16:51:00;;;;;;;21.90;12.80;;;;;;;-1.34;65.38;101274.25;107692;1257;60600;-66
2023/12/04 16:53:30;;;;;;;19.00;11.70;;;;;;;-1.34;65.64;101274.05;107712;1256;76450;-66
2023/12/04 16:55:58;;;;;;;19.30;12.10;;;;;;;-1.33;65.70;101274.43;107721;1257;73747;-67
2023/12/04 16:58:27;;;;;;;20.40;12.60;;;;;;;-1.32;65.89;101278.71;107949;1256;75022;-68
2023/12/04 17:00:55;;;;;;;19.50;12.50;;;;;;;-1.34;65.86;101278.57;107908;1257;63458;-67
2023/12/04 17:03:23;;;;;;;20.50;12.50;;;;;;;-1.35;65.88;101282.06;107891;1256;60326;-66
2023/12/04 17:05:51;;;;;;;21.60;12.40;;;;;;;-1.35;66.01;101283.45;107778;1257;76079;-66
2023/12/04 17:08:19;;;;;;;20.10;11.70;;;;;;;-1.36;66.25;101285.90;107766;1257;73827;-67
2023/12/04 17:10:47;;;;;;;23.10;13.00;;;;;;;-1.36;66.25;101287.20;107891;1258;74893;-66
2023/12/04 17:13:15;;;;;;;20.30;12.70;;;;;;;-1.36;66.30;101285.08;107519;1257;60281;-67
2023/12/04 17:15:43;;;;;;;22.00;13.10;;;;;;;-1.37;66.26;101286.98;92711;1257;10001602;-66
2023/12/04 17:18:11;;;;;;;19.90;12.50;;;;;;;-1.39;66.60;101283.73;108809;1257;62568;-66
2023/12/04 17:20:39;;;;;;;21.00;11.80;;;;;;;-1.39;66.45;101288.05;107515;1257;62496;-67
2023/12/04 17:23:06;;;;;;;20.40;12.90;;;;;;;-1.39;66.40;101287.00;107713;1257;76165;-66
2023/12/04 17:25:36;;;;;;;19.10;12.50;;;;;;;-1.39;66.49;101287.69;107599;1256;75054;-67
2023/12/04 17:28:03;;;;;;;19.50;12.30;;;;;;;-1.39;66.58;101287.66;107724;1258;72520;-66
2023/12/04 17:30:32;;;;;;;19.30;12.40;;;;;;;-1.39;66.63;101296.56;107747;1257;60312;-67
2023/12/04 17:33:00;;;;;;;22.30;13.00;;;;;;;-1.38;66.90;101287.59;107567;1257;60362;-67
2023/12/04 17:35:28;;;;;;;24.20;13.80;;;;;;;-1.37;66.77;101290.48;107724;1258;76113;-66
2023/12/04 17:37:56;;;;;;;21.20;13.20;;;;;;;-1.38;67.09;101288.41;107554;1257;70570;-66
2023/12/04 17:40:23;;;;;;;25.30;14.00;;;;;;;-1.41;66.89;101294.30;107733;1257;72708;-66
2023/12/04 17:42:51;;;;;;;21.20;13.50;;;;;;;-1.42;66.96;101296.48;107563;1258;60409;-66
2023/12/04 17:45:19;;;;;;;22.00;13.10;;;;;;;-1.44;66.92;101294.31;107631;1260;60173;-65
2023/12/04 17:47:50;;;;;;;22.20;13.10;;;;;;;-1.45;67.05;101299.13;107563;1256;76063;-67
2023/12/04 17:50:18;;;;;;;21.20;13.10;;;;;;;-1.48;66.95;101298.00;107586;1257;74827;-66
2023/12/04 17:52:46;;;;;;;22.40;14.10;;;;;;;-1.48;66.93;101304.33;107612;1257;72817;-66
2023/12/04 17:55:14;;;;;;;22.00;13.00;;;;;;;-1.48;67.09;101309.00;107850;1257;60331;-66
2023/12/04 17:57:42;;;;;;;21.70;13.10;;;;;;;-1.48;67.11;101306.27;107660;1256;61432;-66
2023/12/04 18:00:14;;;;;;;19.60;11.40;;;;;;;-1.51;66.98;101308.16;107614;1258;74259;-66
2023/12/04 18:02:45;;;;;;;20.60;12.00;;;;;;;-1.56;67.24;101311.29;107694;1256;72964;-66
2023/12/04 18:05:14;;;;;;;22.60;12.30;;;;;;;-1.61;67.19;101306.04;107672;1257;71548;-67
2023/12/04 18:07:42;;;;;;;21.40;13.50;;;;;;;-1.66;67.11;101307.04;107687;1257;60695;-67
2023/12/04 18:10:10;;;;;;;21.40;12.90;;;;;;;-1.73;67.27;101307.47;107542;1256;60321;-67
2023/12/04 18:12:39;;;;;;;20.30;12.30;;;;;;;-1.80;67.48;101308.55;107596;1262;76101;-66
2023/12/04 18:15:09;;;;;;;21.00;12.90;;;;;;;-1.87;67.59;101316.05;107632;1257;73325;-65
2023/12/04 18:17:43;;;;;;;22.00;13.40;;;;;;;-1.92;67.85;101322.64;107577;1257;74881;-66
2023/12/04 18:20:15;;;;;;;21.80;13.70;;;;;;;-1.98;67.96;101321.16;107578;1257;61288;-66
2023/12/04 18:22:44;;;;;;;21.00;13.00;;;;;;;-2.01;68.11;101325.17;107587;1257;62272;-66
2023/12/04 18:25:13;;;;;;;21.30;13.00;;;;;;;-2.05;68.23;101325.91;107982;1258;72636;-67
2023/12/04 18:27:42;;;;;;;25.10;14.70;;;;;;;-2.09;68.37;101324.88;107854;1260;75498;-68
2023/12/04 18:30:13;;;;;;;24.70;14.50;;;;;;;-2.13;68.43;101327.01;107625;1257;74891;-67
2023/12/04 18:32:42;;;;;;;21.00;13.00;;;;;;;-2.17;68.93;101327.59;108063;1254;64137;-67
2023/12/04 18:35:11;;;;;;;19.10;12.80;;;;;;;-2.22;68.89;101333.99;107709;1257;60393;-66
2023/12/04 18:37:48;;;;;;;21.70;13.60;;;;;;;-2.25;68.96;101336.32;107640;1255;74232;-66
2023/12/04 18:40:16;;;;;;;23.00;13.80;;;;;;;-2.29;69.39;101337.90;107528;1256;73860;-65
2023/12/04 18:42:44;;;;;;;24.60;14.40;;;;;;;-2.32;69.40;101338.53;107621;1256;74860;-66
2023/12/04 18:45:13;;;;;;;24.00;14.30;;;;;;;-2.36;69.48;101338.73;107794;1257;59350;-67
2023/12/04 18:47:44;;;;;;;27.50;14.50;;;;;;;-2.39;69.48;101339.56;107757;1257;60346;-66
2023/12/04 18:50:14;;;;;;;29.30;15.70;;;;;;;-2.43;69.75;101342.41;108238;1255;74257;-69
2023/12/04 18:52:46;;;;;;;33.00;17.00;;;;;;;-2.47;69.93;101338.81;107887;1257;73347;-66
2023/12/04 18:55:14;;;;;;;31.00;16.80;;;;;;;-2.51;70.04;101342.19;107626;1257;73935;-66
2023/12/04 18:57:48;;;;;;;33.40;18.60;;;;;;;-2.55;70.03;101340.36;107570;1255;62258;-68
2023/12/04 19:00:24;;;;;;;31.90;17.70;;;;;;;-2.58;70.25;101344.48;107671;1257;59035;-66
2023/12/04 19:02:57;;;;;;;29.60;18.20;;;;;;;-2.61;70.43;101346.15;107513;1257;73487;-66
2023/12/04 19:05:30;;;;;;;29.60;16.80;;;;;;;-2.63;70.81;101349.10;108058;1257;74983;-67
2023/12/04 19:08:05;;;;;;;31.50;17.50;;;;;;;-2.63;70.94;101350.14;107569;1257;74844;-66
2023/12/04 19:10:33;;;;;;;26.60;15.40;;;;;;;-2.62;71.27;101353.02;107549;1255;62886;-66
2023/12/04 19:13:01;;;;;;;23.60;15.30;;;;;;;-2.63;71.47;101357.84;107556;1256;60569;-67
2023/12/04 19:15:31;;;;;;;24.60;15.20;;;;;;;-2.61;71.64;101357.94;107569;1260;75677;-66
2023/12/04 19:17:59;;;;;;;21.50;14.10;;;;;;;-2.55;71.94;101359.38;107623;1254;73679;-66
2023/12/04 19:20:29;;;;;;;23.30;14.10;;;;;;;-2.51;72.12;101364.55;107858;1260;73092;-66
2023/12/04 19:22:57;;;;;;;20.90;12.50;;;;;;;-2.47;72.27;101363.25;107698;1257;61548;-66
2023/12/04 19:25:26;;;;;;;21.40;14.00;;;;;;;-2.40;72.56;101363.23;107693;1257;62216;-68
2023/12/04 19:28:04;;;;;;;23.70;14.50;;;;;;;-2.30;72.64;101361.92;107737;1256;75983;-66
2023/12/04 19:30:32;;;;;;;20.70;13.60;;;;;;;-2.22;72.84;101362.15;108968;1256;74700;-67
2023/12/04 19:33:02;;;;;;;20.70;13.60;;;;;;;-2.16;72.64;101362.20;108057;1257;73686;-66
2023/12/04 19:35:35;;;;;;;23.60;12.50;;;;;;;-2.06;72.77;101364.45;107439;1257;63416;-67
2023/12/04 19:38:02;;;;;;;22.70;14.30;;;;;;;-2.01;72.71;101365.30;107560;1256;60951;-66
2023/12/04 19:40:30;;;;;;;24.20;14.00;;;;;;;-1.97;72.69;101361.91;107655;1256;74465;-66
2023/12/04 19:42:58;;;;;;;24.70;13.90;;;;;;;-1.93;72.74;101365.63;107449;1256;73114;-66
2023/12/04 19:45:26;;;;;;;32.10;17.20;;;;;;;-1.88;72.76;101368.88;107566;1257;72802;-65